Voth, Texas
Current Conditions -  °F | °C
As of 5:15 PM on Friday 19 Dec 2014 (Local Time) from KBMT Reporting Station
Moderate Rain Moderate Rain  
Wind Chill: 51°   Ceiling: 700
Heat Index: 51°   Visibility: 10mi
Dew Point: 51°   Wind: 9mph
Humidity: 98%   Direction: 30°NNE
Pressure: 30.03"   Gusts: NA
Location:  30.17°N, 94.2°W
Report Text: KBMT 192315Z AUTO 03008KT 10SM RA OVC007 11/11 A3003 RMK AO2 T01080105
Loading
Personal Weather Stations






























Interactive Weather Map New forecast layout! Learn more

10-Day Weather Forecast

Advertisements
Track Severe Weather on mobile